createdAt,value
2022-10-28T16:36:33.463Z,52.77
2022-10-28T16:38:39.988Z,52.29
2022-10-28T16:40:51.321Z,53.98
2022-10-28T16:42:56.667Z,48.35
2022-10-28T16:45:00.825Z,47.12
2022-10-28T16:47:12.366Z,47.97
2022-10-28T16:49:16.186Z,45.07
2022-10-28T16:51:19.913Z,44.86
2022-10-28T16:53:23.967Z,44.47
2022-10-28T16:55:28.584Z,44.88
2022-10-28T16:57:32.222Z,45.36
2022-10-28T16:59:35.820Z,44.84
2022-10-28T17:01:39.825Z,43.35
2022-10-28T17:03:43.428Z,44.21
2022-10-28T17:05:47.088Z,43.95
2022-10-28T17:07:51.340Z,43.17
2022-10-28T17:09:55.257Z,43.99
2022-10-28T17:11:58.874Z,44.12
2022-10-28T17:14:02.926Z,42.78
2022-10-28T17:16:06.744Z,43.95
2022-10-28T17:18:12.431Z,44.42
2022-10-28T17:20:16.346Z,44.37
2022-10-28T17:22:20.192Z,45.32
2022-10-28T17:24:24.164Z,46.41
2022-10-28T17:26:28.176Z,44.73
2022-10-28T17:28:31.854Z,42.57
2022-10-28T17:30:35.463Z,42.11
2022-10-28T17:32:38.875Z,42.55
2022-10-28T17:34:43.784Z,41.23
2022-10-28T17:36:47.808Z,40.51
2022-10-28T17:38:51.342Z,41.43
2022-10-28T17:40:56.269Z,42.19
2022-10-28T17:43:00.543Z,40.44
2022-10-28T17:45:04.671Z,41.39
2022-10-28T17:47:08.177Z,39.99
2022-10-28T17:49:11.847Z,39.03
2022-10-28T17:51:15.750Z,38.28
2022-10-28T17:53:19.409Z,38.34
2022-10-28T17:55:23.224Z,36.14
2022-10-28T17:57:26.809Z,36.58
2022-10-28T17:59:30.691Z,36.24
2022-10-28T18:01:37.854Z,35.47
2022-10-28T18:03:41.777Z,35.02
2022-10-28T18:05:45.304Z,33.81
2022-10-28T18:07:49.022Z,34.37
2022-10-28T18:09:52.629Z,33.33
2022-10-28T18:11:56.675Z,33.22
2022-10-28T18:14:00.373Z,32.68
2022-10-28T18:16:15.000Z,32.48
2022-10-28T18:18:18.645Z,32.19
2022-10-28T18:20:22.481Z,33.40
2022-10-28T18:24:35.963Z,33.72
2022-10-28T18:26:40.597Z,33.87
2022-10-28T18:28:45.319Z,33.01
2022-10-28T18:30:49.165Z,32.60
2022-10-28T18:32:53.607Z,32.16
2022-10-28T18:34:58.053Z,31.74
2022-10-28T18:37:05.194Z,31.50
2022-10-28T18:39:10.060Z,31.56
2022-10-28T18:41:14.752Z,34.16
2022-10-28T18:43:18.118Z,30.80
2022-10-28T18:45:21.787Z,31.24
2022-10-28T18:47:26.248Z,31.54
2022-10-28T18:49:30.088Z,31.71
2022-10-28T18:51:36.806Z,32.26
2022-10-28T18:53:44.971Z,31.93
2022-10-28T18:55:48.647Z,32.41
2022-10-28T18:57:52.827Z,31.38
2022-10-28T19:00:17.510Z,31.17
2022-10-28T19:02:20.625Z,30.79
2022-10-28T19:04:24.786Z,31.08
2022-10-28T19:06:34.024Z,32.37
2022-10-28T19:08:38.773Z,31.82
2022-10-28T19:10:43.175Z,31.96
2022-10-28T19:12:52.009Z,30.78
2022-10-28T19:14:56.855Z,30.78
2022-10-28T19:17:00.587Z,30.53
2022-10-28T19:19:05.697Z,31.31
2022-10-28T19:21:14.816Z,30.86
2022-10-28T19:23:18.602Z,31.04
2022-10-28T19:25:22.238Z,30.99
2022-10-28T19:27:26.008Z,31.33
2022-10-28T19:29:29.931Z,30.68
2022-10-28T19:31:36.804Z,30.77
2022-10-28T19:33:40.348Z,31.33
2022-10-28T19:35:44.498Z,31.31
2022-10-28T19:37:48.411Z,31.29
2022-10-28T19:39:56.460Z,31.23
2022-10-28T19:42:00.739Z,31.12
2022-10-28T19:44:05.096Z,31.15
2022-10-28T19:46:09.499Z,31.02
2022-10-28T19:48:13.643Z,31.20
2022-10-28T19:50:17.538Z,31.05
2022-10-28T19:52:21.278Z,30.13
2022-10-28T19:54:24.874Z,30.22
2022-10-28T19:56:29.610Z,30.11
2022-10-28T19:58:35.137Z,30.50
2022-10-28T20:00:39.495Z,29.93
2022-10-28T20:02:43.073Z,29.94
2022-10-28T20:04:47.022Z,29.36
2022-10-28T20:06:50.448Z,29.92
2022-10-28T20:08:54.426Z,30.11
2022-10-28T20:10:59.053Z,30.29
2022-10-28T20:13:03.296Z,30.40
2022-10-28T20:15:07.690Z,30.41
2022-10-28T20:17:14.875Z,30.63
2022-10-28T20:19:18.540Z,31.11
2022-10-28T20:21:23.204Z,30.66
2022-10-28T20:23:27.033Z,30.37
2022-10-28T20:25:30.592Z,30.43
2022-10-28T20:27:35.492Z,30.43
2022-10-28T20:29:39.426Z,30.79
2022-10-28T20:31:42.960Z,30.90
2022-10-28T20:33:51.124Z,30.82
2022-10-28T20:35:55.255Z,30.70
2022-10-28T20:37:59.331Z,30.92
2022-10-28T20:40:07.244Z,32.23
2022-10-28T20:42:11.698Z,32.06
2022-10-28T20:44:15.509Z,31.81
2022-10-28T20:46:20.308Z,31.68
2022-10-28T20:48:24.421Z,31.58
2022-10-28T20:50:27.968Z,32.70
2022-10-28T20:52:31.875Z,32.63
2022-10-28T20:54:35.553Z,33.30
2022-10-28T20:56:41.356Z,34.42
2022-10-28T20:58:45.226Z,32.52
2022-10-28T21:00:49.120Z,33.66
2022-10-28T21:02:55.247Z,34.65
2022-10-28T21:04:59.633Z,33.44
2022-10-28T21:07:03.184Z,33.70
2022-10-28T21:09:09.105Z,33.93
2022-10-28T21:11:14.312Z,33.63
2022-10-28T21:13:17.842Z,34.15
2022-10-28T21:15:21.257Z,35.33
2022-10-28T21:17:25.080Z,34.50
2022-10-28T21:19:28.927Z,34.38
2022-10-28T21:21:33.088Z,34.51
2022-10-28T21:23:36.528Z,35.04
2022-10-28T21:25:40.994Z,34.61
2022-10-28T21:27:44.491Z,34.87
2022-10-28T21:29:48.333Z,34.73
2022-10-28T21:31:51.969Z,35.00
2022-10-28T21:33:55.921Z,34.97
2022-10-28T21:36:00.412Z,35.29
2022-10-28T21:38:04.335Z,35.27
2022-10-28T21:40:08.714Z,35.36
2022-10-28T21:42:12.611Z,36.40
2022-10-28T21:44:16.007Z,36.25
2022-10-28T21:46:21.042Z,35.92
2022-10-28T21:48:25.053Z,37.18
2022-10-28T21:50:28.916Z,39.12
2022-10-28T21:52:32.431Z,38.17
2022-10-28T21:54:35.975Z,34.91
2022-10-28T21:56:39.562Z,35.31
2022-10-28T21:58:43.348Z,35.02
2022-10-28T22:00:46.989Z,36.35
2022-10-28T22:02:51.283Z,35.86
2022-10-28T22:04:54.808Z,37.37
2022-10-28T22:06:58.381Z,34.44
2022-10-28T22:09:01.753Z,34.55
2022-10-28T22:11:09.782Z,36.53
2022-10-28T22:13:13.165Z,34.66
2022-10-28T22:15:17.549Z,33.93
2022-10-28T22:17:21.066Z,33.75
2022-10-28T22:19:24.726Z,34.10
2022-10-28T22:21:31.655Z,33.96
2022-10-28T22:23:35.657Z,34.01
2022-10-28T22:25:39.108Z,34.40
2022-10-28T22:27:43.099Z,34.02
2022-10-28T22:29:46.966Z,35.79
2022-10-28T22:31:50.750Z,34.55
2022-10-28T22:33:55.330Z,35.18
2022-10-28T22:36:02.821Z,36.00
2022-10-28T22:38:06.939Z,34.72
2022-10-28T22:40:11.205Z,34.55
2022-10-28T22:42:14.810Z,35.55
2022-10-28T22:44:18.591Z,34.85
2022-10-28T22:46:22.662Z,35.22
2022-10-28T22:48:25.982Z,34.51
2022-10-28T22:50:29.515Z,34.42
2022-10-28T22:52:32.962Z,34.92
2022-10-28T22:54:37.505Z,35.84
2022-10-28T22:56:42.021Z,35.20
2022-10-28T22:58:45.506Z,35.05
2022-10-28T23:00:49.099Z,35.14
2022-10-28T23:02:53.025Z,35.29
2022-10-28T23:04:56.816Z,35.72
2022-10-28T23:07:00.734Z,36.14
2022-10-28T23:09:04.366Z,35.59
2022-10-28T23:11:09.001Z,36.13
2022-10-28T23:13:13.343Z,36.21
2022-10-28T23:15:17.271Z,36.16
2022-10-28T23:17:20.896Z,36.10
2022-10-28T23:19:24.486Z,37.33
2022-10-28T23:21:27.925Z,37.58
2022-10-28T23:23:31.359Z,37.73
2022-10-28T23:25:34.685Z,36.36
2022-10-28T23:27:41.785Z,40.33
2022-10-28T23:29:45.216Z,41.27
2022-10-28T23:31:48.952Z,40.17
2022-10-28T23:33:53.831Z,39.37
2022-10-28T23:35:58.087Z,40.26
2022-10-28T23:38:02.205Z,41.29
2022-10-28T23:40:06.768Z,42.64
2022-10-28T23:42:10.603Z,38.73
2022-10-28T23:44:14.608Z,38.94
2022-10-28T23:46:18.609Z,38.27
2022-10-28T23:48:22.386Z,38.47
2022-10-28T23:50:26.588Z,38.07
2022-10-28T23:52:30.687Z,38.39
2022-10-28T23:54:34.602Z,37.89
2022-10-28T23:56:38.799Z,38.01
2022-10-28T23:58:43.024Z,38.55
